createdAt,value
2022-11-14T00:03:30.108Z,1017.11
2022-11-14T00:08:38.620Z,1017.19
2022-11-14T00:13:45.998Z,1017.17
2022-11-14T00:19:01.717Z,1017.07
2022-11-14T00:24:08.925Z,1017.00
2022-11-14T00:29:16.302Z,1016.96
2022-11-14T00:34:25.167Z,1016.89
2022-11-14T00:39:35.253Z,1016.81
2022-11-14T00:44:42.602Z,1016.82
2022-11-14T00:49:49.753Z,1016.79
2022-11-14T00:54:57.034Z,1016.68
2022-11-14T01:00:04.480Z,1016.62
2022-11-14T01:05:11.592Z,1016.53
2022-11-14T01:10:18.841Z,1016.55
2022-11-14T01:15:26.154Z,1016.60
2022-11-14T01:20:33.305Z,1016.72
2022-11-14T01:25:40.599Z,1016.69
2022-11-14T01:30:47.936Z,1016.58
2022-11-14T01:35:55.036Z,1016.54
2022-11-14T01:41:02.305Z,1016.63
2022-11-14T01:46:09.705Z,1016.67
2022-11-14T01:51:16.858Z,1016.58
2022-11-14T01:56:24.076Z,1016.52
2022-11-14T02:01:31.419Z,1016.53
2022-11-14T02:06:38.523Z,1016.42
2022-11-14T02:11:48.211Z,1016.45
2022-11-14T02:17:14.756Z,1016.41
2022-11-14T02:22:02.602Z,1016.44
2022-11-14T02:27:09.797Z,1016.44
2022-11-14T02:32:17.129Z,1016.43
2022-11-14T02:37:24.192Z,1016.38
2022-11-14T02:42:31.446Z,1016.39
2022-11-14T02:47:40.792Z,1016.38
2022-11-14T02:52:47.971Z,1016.35
2022-11-14T02:57:55.224Z,1016.38
2022-11-14T03:03:02.611Z,1016.40
2022-11-14T03:08:10.807Z,1016.37
2022-11-14T03:13:19.475Z,1016.38
2022-11-14T03:18:26.985Z,1016.45
2022-11-14T03:23:33.946Z,1016.44
2022-11-14T03:28:42.304Z,1016.43
2022-11-14T03:33:50.555Z,1016.46
2022-11-14T03:38:58.011Z,1016.49
2022-11-14T03:44:05.267Z,1016.47
2022-11-14T03:49:12.569Z,1016.54
2022-11-14T03:54:19.642Z,1016.57
2022-11-14T03:59:26.903Z,1016.52
2022-11-14T04:04:34.264Z,1016.53
2022-11-14T04:09:41.361Z,1016.44
2022-11-14T04:14:48.562Z,1016.47
2022-11-14T04:19:55.932Z,1016.28
2022-11-14T04:25:02.987Z,1016.25
2022-11-14T04:30:10.390Z,1016.11
2022-11-14T04:35:17.704Z,1016.02
2022-11-14T04:40:26.357Z,1015.94
2022-11-14T04:45:33.761Z,1015.84
2022-11-14T04:50:40.998Z,1015.79
2022-11-14T04:55:48.824Z,1015.69
2022-11-14T05:00:57.161Z,1015.65
2022-11-14T05:06:04.436Z,1015.62
2022-11-14T05:11:24.159Z,1015.52
2022-11-14T05:16:28.143Z,1015.57
2022-11-14T05:21:36.611Z,1015.47
2022-11-14T05:26:43.744Z,1015.55
2022-11-14T05:31:50.972Z,1015.45
2022-11-14T05:36:58.428Z,1015.28
2022-11-14T05:42:05.595Z,1015.30
2022-11-14T05:47:12.841Z,1015.37
2022-11-14T05:52:20.117Z,1015.31
2022-11-14T05:57:27.335Z,1015.21
2022-11-14T06:02:36.834Z,1015.15
2022-11-14T06:07:46.243Z,1015.01
2022-11-14T06:12:57.633Z,1015.15
2022-11-14T06:18:04.842Z,1015.08
2022-11-14T06:23:12.917Z,1015.00
2022-11-14T06:28:20.069Z,1015.04
2022-11-14T06:33:27.293Z,1015.06
2022-11-14T06:38:34.530Z,1015.19
2022-11-14T06:43:41.753Z,1015.21
2022-11-14T06:48:48.997Z,1015.25
2022-11-14T06:53:58.126Z,1015.31
2022-11-14T06:59:05.270Z,1015.35
2022-11-14T07:04:15.180Z,1015.29
2022-11-14T07:09:22.451Z,1015.38
2022-11-14T07:14:35.608Z,1015.35
2022-11-14T07:19:42.866Z,1015.33
2022-11-14T07:24:50.048Z,1015.33
2022-11-14T07:29:57.260Z,1015.41
2022-11-14T07:35:04.470Z,1015.39
2022-11-14T07:40:11.672Z,1015.40
2022-11-14T07:45:18.893Z,1015.44
2022-11-14T07:50:27.927Z,1015.50
2022-11-14T07:55:35.466Z,1015.52
2022-11-14T08:00:42.693Z,1015.65
2022-11-14T08:05:49.858Z,1015.70
2022-11-14T08:10:57.153Z,1015.85
2022-11-14T08:16:07.917Z,1015.84
2022-11-14T08:21:11.667Z,1015.91
2022-11-14T08:26:18.889Z,1015.97
2022-11-14T08:31:26.076Z,1016.00
2022-11-14T08:36:33.347Z,1016.04
2022-11-14T08:41:40.643Z,1016.15
2022-11-14T08:46:47.847Z,1016.24
2022-11-14T08:51:55.126Z,1016.42
2022-11-14T08:57:02.494Z,1016.57
2022-11-14T09:02:09.614Z,1016.61
2022-11-14T09:07:16.947Z,1016.70
2022-11-14T09:12:24.413Z,1016.68
2022-11-14T09:17:39.882Z,1016.75
2022-11-14T09:22:47.050Z,1016.90
2022-11-14T09:27:54.273Z,1016.95
2022-11-14T09:33:02.819Z,1017.12
2022-11-14T09:38:10.523Z,1017.30
2022-11-14T09:43:22.426Z,1017.42
2022-11-14T09:48:30.052Z,1017.56
2022-11-14T09:53:36.841Z,1017.71
2022-11-14T09:58:44.372Z,1017.45
2022-11-14T10:03:51.546Z,1017.36
2022-11-14T10:08:58.825Z,1017.32
2022-11-14T10:14:07.597Z,1017.29
2022-11-14T10:19:14.881Z,1017.15
2022-11-14T10:24:24.256Z,1016.99
2022-11-14T10:29:31.491Z,1017.10
2022-11-14T10:34:40.265Z,1017.11
2022-11-14T10:39:47.500Z,1016.99
2022-11-14T10:44:58.505Z,1016.94
2022-11-14T10:50:05.699Z,1016.97
2022-11-14T10:55:12.908Z,1016.81
2022-11-14T11:00:20.125Z,1016.81
2022-11-14T11:05:28.631Z,1016.79
2022-11-14T11:10:35.928Z,1016.72
2022-11-14T11:15:43.196Z,1016.68
2022-11-14T11:20:50.604Z,1016.70
2022-11-14T11:25:57.781Z,1016.59
2022-11-14T11:31:07.661Z,1016.67
2022-11-14T11:36:14.887Z,1016.58
2022-11-14T11:42:00.839Z,1016.64
2022-11-14T11:46:30.183Z,1016.66
2022-11-14T11:51:37.367Z,1016.62
2022-11-14T11:56:45.014Z,1016.52
2022-11-14T12:01:53.492Z,1016.50
2022-11-14T12:07:02.287Z,1016.46
2022-11-14T12:12:09.458Z,1016.40
2022-11-14T12:17:16.757Z,1016.32
2022-11-14T12:22:29.499Z,1016.31
2022-11-14T12:27:36.773Z,1016.28
2022-11-14T12:32:43.945Z,1016.14
2022-11-14T12:37:55.376Z,1016.17
2022-11-14T12:42:58.351Z,1016.09
2022-11-14T12:48:05.582Z,1016.12
2022-11-14T12:53:13.222Z,1016.12
2022-11-14T12:58:20.426Z,1016.07
2022-11-14T13:03:27.941Z,1016.03
2022-11-14T13:08:34.981Z,1015.97
2022-11-14T13:13:42.244Z,1015.93
2022-11-14T13:18:55.995Z,1015.88
2022-11-14T13:24:04.172Z,1015.88
2022-11-14T13:29:11.378Z,1015.85
2022-11-14T13:34:18.692Z,1015.78
2022-11-14T13:39:25.900Z,1015.81
2022-11-14T13:44:34.639Z,1015.76
2022-11-14T13:49:42.139Z,1015.76
2022-11-14T13:54:49.508Z,1015.71
2022-11-14T13:59:56.818Z,1015.69
2022-11-14T14:05:05.873Z,1015.67
2022-11-14T14:10:14.952Z,1015.62
2022-11-14T14:15:22.175Z,1015.60
2022-11-14T14:20:29.483Z,1015.54
2022-11-14T14:25:36.669Z,1015.64
2022-11-14T14:30:46.736Z,1015.68
2022-11-14T14:35:54.116Z,1015.66
2022-11-14T14:41:01.434Z,1015.76
2022-11-14T14:46:08.653Z,1015.75
2022-11-14T14:51:15.878Z,1015.79
2022-11-14T14:56:23.657Z,1015.78
2022-11-14T15:01:31.582Z,1015.77
2022-11-14T15:06:39.155Z,1015.89
2022-11-14T15:11:46.318Z,1015.84
2022-11-14T15:16:53.580Z,1015.85
2022-11-14T15:22:00.816Z,1015.84
2022-11-14T15:27:09.048Z,1015.90
2022-11-14T15:32:16.256Z,1016.00
2022-11-14T15:37:25.397Z,1015.97
2022-11-14T15:42:32.574Z,1015.97
2022-11-14T15:47:42.080Z,1015.96
2022-11-14T15:52:49.424Z,1015.96
2022-11-14T15:58:21.523Z,1015.96
2022-11-14T16:03:03.818Z,1015.95
2022-11-14T16:08:11.079Z,1015.94
2022-11-14T16:13:18.558Z,1015.97
2022-11-14T16:18:29.301Z,1015.99
2022-11-14T16:23:39.225Z,1016.06
2022-11-14T16:28:46.919Z,1016.11
2022-11-14T16:33:54.205Z,1016.16
2022-11-14T16:39:02.008Z,1016.22
2022-11-14T16:44:09.279Z,1016.24
2022-11-14T16:49:23.029Z,1016.33
2022-11-14T16:54:30.274Z,1016.43
2022-11-14T16:59:37.642Z,1016.48
2022-11-14T17:04:45.091Z,1016.43
2022-11-14T17:09:52.609Z,1016.43
2022-11-14T17:15:00.067Z,1016.44
2022-11-14T17:20:07.331Z,1016.40
2022-11-14T17:25:15.247Z,1016.35
2022-11-14T17:30:22.842Z,1016.39
2022-11-14T17:35:30.274Z,1016.33
2022-11-14T17:40:37.471Z,1016.33
2022-11-14T17:45:45.407Z,1016.24
2022-11-14T17:50:52.594Z,1016.22
2022-11-14T17:55:59.824Z,1016.22
2022-11-14T18:01:11.326Z,1016.17
2022-11-14T18:06:18.558Z,1016.13
2022-11-14T18:11:26.035Z,1016.05
2022-11-14T18:17:05.444Z,1016.02
2022-11-14T18:21:45.893Z,1015.96
2022-11-14T18:26:56.855Z,1016.04
2022-11-14T18:32:07.111Z,1016.08
2022-11-14T18:37:14.482Z,1016.11
2022-11-14T18:42:22.057Z,1016.06
2022-11-14T18:47:29.680Z,1016.15
2022-11-14T18:52:37.258Z,1016.19
2022-11-14T18:57:59.856Z,1016.21
2022-11-14T19:03:11.081Z,1016.13
2022-11-14T19:08:18.803Z,1016.11
2022-11-14T19:13:26.894Z,1016.14
2022-11-14T19:18:41.545Z,1016.11
2022-11-14T19:23:50.899Z,1016.09
2022-11-14T19:29:01.306Z,1016.11
2022-11-14T19:34:08.997Z,1016.09
2022-11-14T19:39:16.571Z,1016.09
2022-11-14T19:44:24.250Z,1016.13
2022-11-14T19:49:31.963Z,1016.22
2022-11-14T19:54:39.586Z,1016.20
2022-11-14T19:59:47.403Z,1016.03
2022-11-14T20:04:54.805Z,1016.09
2022-11-14T20:10:02.400Z,1016.12
2022-11-14T20:15:10.141Z,1016.15
2022-11-14T20:20:17.836Z,1016.02
2022-11-14T20:25:25.458Z,1016.04
2022-11-14T20:30:32.930Z,1016.01
2022-11-14T20:35:40.259Z,1015.99
2022-11-14T20:40:47.783Z,1016.01
2022-11-14T20:45:55.184Z,1016.06
2022-11-14T20:51:02.346Z,1016.04
2022-11-14T20:56:09.635Z,1016.09
2022-11-14T21:01:16.978Z,1016.12
2022-11-14T21:06:24.124Z,1016.12
2022-11-14T21:11:31.344Z,1016.12
2022-11-14T21:16:38.641Z,1016.10
2022-11-14T21:21:45.849Z,1016.05
2022-11-14T21:26:53.065Z,1016.09
2022-11-14T21:32:00.301Z,1015.92
2022-11-14T21:37:07.502Z,1015.86
2022-11-14T21:42:18.466Z,1015.85
2022-11-14T21:47:21.951Z,1015.85
2022-11-14T21:52:29.168Z,1015.85
2022-11-14T21:57:36.434Z,1015.82
2022-11-14T22:02:43.684Z,1015.79
2022-11-14T22:07:50.844Z,1015.65
2022-11-14T22:12:57.996Z,1015.66
2022-11-14T22:18:05.224Z,1015.58
2022-11-14T22:23:12.410Z,1015.63
2022-11-14T22:28:19.644Z,1015.60
2022-11-14T22:33:26.893Z,1015.58
2022-11-14T22:38:34.100Z,1015.62
2022-11-14T22:43:41.256Z,1015.66
2022-11-14T22:48:48.475Z,1015.65
2022-11-14T22:53:55.706Z,1015.68
2022-11-14T22:59:02.894Z,1015.76
2022-11-14T23:04:10.151Z,1015.67
2022-11-14T23:09:17.367Z,1015.68
2022-11-14T23:14:24.649Z,1015.55
2022-11-14T23:19:31.938Z,1015.43
2022-11-14T23:24:39.156Z,1015.53
2022-11-14T23:29:46.471Z,1015.43
2022-11-14T23:34:53.688Z,1015.32
2022-11-14T23:40:00.931Z,1015.29
2022-11-14T23:45:08.179Z,1015.24
2022-11-14T23:50:15.460Z,1015.21
2022-11-14T23:55:22.599Z,1015.17
